Time;durP1;ratioP1;P1;durP2;ratioP2;P2;SDS_P1;SDS_P2;PMS_P1;PMS_P2;Temp;Humidity;BMP_temperature;BMP_pressure;BME280_temperature;BME280_humidity;BME280_pressure;Samples;Min_cycle;Max_cycle;Signal;HPM_P1;HPM_P2
2022/10/09 00:00:46;;;;;;;5.30;1.50;;;10.60;99.90;;;;;;5020077;28;20051;-76
2022/10/09 00:03:14;;;;;;;5.22;1.70;;;10.60;99.90;;;;;;5035819;28;20118;-74
2022/10/09 00:05:40;;;;;;;6.50;1.60;;;10.60;99.90;;;;;;5038593;28;20049;-74
2022/10/09 00:08:06;;;;;;;6.05;1.90;;;10.60;99.90;;;;;;5035920;28;20160;-74
2022/10/09 00:10:32;;;;;;;5.25;1.35;;;10.60;99.90;;;;;;5037822;28;20178;-73
2022/10/09 00:12:58;;;;;;;4.45;1.25;;;10.50;99.90;;;;;;5036915;28;20112;-74
2022/10/09 00:15:23;;;;;;;3.17;1.00;;;10.50;99.90;;;;;;5033862;28;20072;-74
2022/10/09 00:17:49;;;;;;;7.13;1.73;;;10.50;99.90;;;;;;5036539;28;20106;-74
2022/10/09 00:20:15;;;;;;;5.20;1.50;;;10.50;99.90;;;;;;5042288;28;20036;-74
2022/10/09 00:22:42;;;;;;;6.33;1.53;;;10.40;99.90;;;;;;5041205;28;20041;-74
2022/10/09 00:25:08;;;;;;;6.32;1.45;;;10.40;99.90;;;;;;5019564;28;20423;-74
2022/10/09 00:27:34;;;;;;;6.47;1.92;;;10.40;99.90;;;;;;5028736;28;20308;-74
2022/10/09 00:30:00;;;;;;;2.80;1.43;;;10.40;99.90;;;;;;5031407;28;20052;-74
2022/10/09 00:32:25;;;;;;;3.60;1.20;;;10.30;99.90;;;;;;5026066;28;20048;-74
2022/10/09 00:34:51;;;;;;;3.37;1.17;;;10.30;99.90;;;;;;5042530;28;20274;-74
2022/10/09 00:37:17;;;;;;;5.97;1.10;;;10.30;99.90;;;;;;5039759;28;20029;-74
2022/10/09 00:39:43;;;;;;;7.50;1.30;;;10.30;99.90;;;;;;5039911;28;20042;-73
2022/10/09 00:42:11;;;;;;;4.90;1.40;;;10.20;99.90;;;;;;5041043;28;20579;-74
2022/10/09 00:44:58;;;;;;;4.95;1.70;;;10.20;99.90;;;;;;5040950;28;20513;-74
2022/10/09 00:47:39;;;;;;;4.15;1.20;;;10.20;99.90;;;;;;5035784;28;20828;-74
2022/10/09 00:50:16;;;;;;;5.80;1.92;;;10.20;99.90;;;;;;5034569;28;20410;-74
2022/10/09 00:52:42;;;;;;;;;;;10.20;99.90;;;;;;5041044;28;20041;-74
2022/10/09 00:55:09;;;;;;;2.55;1.10;;;10.10;99.90;;;;;;5037213;28;20291;-74
2022/10/09 00:57:37;;;;;;;6.82;1.45;;;10.10;99.90;;;;;;5030177;28;20060;-73
2022/10/09 01:00:06;;;;;;;2.33;1.27;;;10.10;99.90;;;;;;5041550;28;20045;-74
2022/10/09 01:02:32;;;;;;;6.13;1.42;;;10.00;99.90;;;;;;5038923;28;20246;-74
2022/10/09 01:04:58;;;;;;;7.13;1.30;;;10.00;99.90;;;;;;5038010;28;20127;-74
2022/10/09 01:07:58;;;;;;;8.02;1.55;;;10.00;99.90;;;;;;5039873;28;20080;-74
2022/10/09 01:10:34;;;;;;;2.42;1.45;;;10.00;99.90;;;;;;5040164;28;20041;-74
2022/10/09 01:13:06;;;;;;;4.68;1.67;;;10.00;99.90;;;;;;5036120;28;20086;-74
2022/10/09 01:15:34;;;;;;;7.07;1.45;;;9.90;99.90;;;;;;5035634;28;20490;-74
2022/10/09 01:18:08;;;;;;;3.80;1.50;;;9.90;99.90;;;;;;5040640;28;20501;-74
2022/10/09 01:20:33;;;;;;;6.15;1.85;;;9.90;99.90;;;;;;5042464;28;20037;-73
2022/10/09 01:23:21;;;;;;;4.03;1.57;;;9.90;99.90;;;;;;5035092;28;20033;-74
2022/10/09 01:26:05;;;;;;;;;;;9.90;99.90;;;;;;5041273;28;20037;-74
2022/10/09 01:28:33;;;;;;;2.42;1.02;;;9.90;99.90;;;;;;5037204;28;19935;-74
2022/10/09 01:31:03;;;;;;;2.63;1.60;;;9.80;99.90;;;;;;5038217;28;20510;-74
2022/10/09 01:33:31;;;;;;;3.70;1.20;;;9.80;99.90;;;;;;5038660;28;20131;-73
2022/10/09 01:35:58;;;;;;;6.15;1.85;;;9.70;99.90;;;;;;5042214;28;20495;-74
2022/10/09 01:38:26;;;;;;;10.98;2.05;;;9.70;99.90;;;;;;5039000;28;20076;-74
2022/10/09 01:40:52;;;;;;;4.30;1.30;;;9.60;99.90;;;;;;5022637;28;20055;-73
2022/10/09 01:43:18;;;;;;;;;;;9.60;99.90;;;;;;5042935;28;20106;-74
2022/10/09 01:45:46;;;;;;;2.05;0.95;;;9.60;99.90;;;;;;5034504;28;19972;-74
2022/10/09 01:48:23;;;;;;;4.07;1.75;;;9.60;99.90;;;;;;5032299;28;20049;-73
2022/10/09 01:51:02;;;;;;;3.97;1.60;;;9.50;99.90;;;;;;5032188;28;20430;-73
2022/10/09 01:53:29;;;;;;;8.20;1.20;;;9.50;99.90;;;;;;5039304;28;20084;-74
2022/10/09 01:56:03;;;;;;;5.85;1.88;;;9.50;99.90;;;;;;5034903;28;20041;-73
2022/10/09 01:58:29;;;;;;;3.22;1.50;;;9.50;99.90;;;;;;5036487;28;20056;-74
2022/10/09 02:01:15;;;;;;;5.17;1.80;;;9.40;99.90;;;;;;5045049;28;20033;-74
2022/10/09 02:03:45;;;;;;;4.80;1.80;;;9.40;99.90;;;;;;5041836;28;20045;-73
2022/10/09 02:06:12;;;;;;;4.15;2.17;;;9.40;99.90;;;;;;5041953;28;20094;-74
2022/10/09 02:08:39;;;;;;;5.35;1.48;;;9.40;99.90;;;;;;5041499;28;20486;-74
2022/10/09 02:11:06;;;;;;;5.00;2.03;;;9.30;99.90;;;;;;5047341;28;20095;-74
2022/10/09 02:13:34;;;;;;;4.32;1.42;;;9.30;99.90;;;;;;5044509;28;20056;-74
2022/10/09 02:16:17;;;;;;;4.30;1.40;;;9.30;99.90;;;;;;5041483;28;20044;-74
2022/10/09 02:18:45;;;;;;;4.65;1.95;;;9.20;99.90;;;;;;5044066;28;20606;-74
2022/10/09 02:21:17;;;;;;;9.30;1.85;;;9.20;99.90;;;;;;5040135;28;20169;-74
2022/10/09 02:23:46;;;;;;;4.18;2.05;;;9.20;99.90;;;;;;5040676;28;20086;-73
2022/10/09 02:26:13;;;;;;;2.92;1.40;;;9.20;99.90;;;;;;5063618;23;20421;-75
2022/10/09 02:28:39;;;;;;;5.78;1.48;;;9.20;99.90;;;;;;5059906;28;20394;-75
2022/10/09 02:31:16;;;;;;;2.97;1.30;;;9.10;99.90;;;;;;5059131;28;20243;-74
2022/10/09 02:33:42;;;;;;;;;;;9.20;99.90;;;;;;5042512;28;20273;-74
2022/10/09 02:36:08;;;;;;;3.55;1.38;;;9.10;99.90;;;;;;5036079;28;20022;-74
2022/10/09 02:38:33;;;;;;;4.23;1.60;;;9.10;99.90;;;;;;5018852;28;20119;-74
2022/10/09 02:41:00;;;;;;;3.77;1.83;;;9.10;99.90;;;;;;5032603;28;20041;-74
2022/10/09 02:43:26;;;;;;;4.82;1.80;;;9.10;99.90;;;;;;5029320;28;20288;-74
2022/10/09 02:45:52;;;;;;;3.92;1.77;;;9.10;99.90;;;;;;5032931;28;20033;-74
2022/10/09 02:48:18;;;;;;;5.40;2.17;;;9.10;99.90;;;;;;5033840;28;20060;-74
2022/10/09 02:50:44;;;;;;;4.55;1.80;;;9.10;99.90;;;;;;5037636;28;20048;-74
2022/10/09 02:53:10;;;;;;;5.20;1.95;;;9.10;99.90;;;;;;5034921;28;20662;-74
2022/10/09 02:55:36;;;;;;;6.20;1.80;;;9.00;99.90;;;;;;5029485;28;20114;-74
2022/10/09 02:58:02;;;;;;;5.10;1.95;;;9.00;99.90;;;;;;5030363;28;20152;-74
2022/10/09 03:00:28;;;;;;;7.82;2.08;;;9.00;99.90;;;;;;5032099;28;20198;-74
2022/10/09 03:02:53;;;;;;;7.93;2.97;;;9.00;99.90;;;;;;5030912;28;20398;-75
2022/10/09 03:05:19;;;;;;;4.03;2.10;;;9.00;99.90;;;;;;5035106;28;20499;-74
2022/10/09 03:07:50;;;;;;;3.80;2.00;;;9.00;99.90;;;;;;5030917;28;20526;-74
2022/10/09 03:10:20;;;;;;;3.22;2.10;;;8.90;99.90;;;;;;5032252;28;20045;-74
2022/10/09 03:12:46;;;;;;;5.05;2.50;;;8.90;99.90;;;;;;5032444;28;22537;-74
2022/10/09 03:15:12;;;;;;;5.00;2.05;;;8.90;99.90;;;;;;5031233;28;20082;-74
2022/10/09 03:17:38;;;;;;;5.88;2.15;;;8.90;99.90;;;;;;5034293;28;20045;-74
2022/10/09 03:20:05;;;;;;;8.18;2.08;;;8.80;99.90;;;;;;5032904;28;20048;-74
2022/10/09 03:22:31;;;;;;;7.72;2.50;;;8.80;99.90;;;;;;5039136;28;20076;-74
2022/10/09 03:24:57;;;;;;;5.95;2.38;;;8.80;99.90;;;;;;5037311;28;20041;-74
2022/10/09 03:27:22;;;;;;;5.33;2.80;;;8.70;99.90;;;;;;5039740;28;20380;-74
2022/10/09 03:29:48;;;;;;;5.33;2.03;;;8.70;99.90;;;;;;5048365;28;20549;-74
2022/10/09 03:32:14;;;;;;;4.33;2.30;;;8.70;99.90;;;;;;5033800;28;20621;-74
2022/10/09 03:34:39;;;;;;;4.87;2.30;;;8.80;99.90;;;;;;5041793;28;20045;-74
2022/10/09 03:37:05;;;;;;;4.63;2.80;;;8.70;99.90;;;;;;5035983;28;20048;-74
2022/10/09 03:39:31;;;;;;;7.47;2.73;;;8.70;99.90;;;;;;5047446;28;20591;-74
2022/10/09 03:41:57;;;;;;;5.03;2.30;;;8.70;99.90;;;;;;5043541;28;20049;-75
2022/10/09 03:44:23;;;;;;;5.30;2.65;;;8.70;99.90;;;;;;5047384;28;20564;-74
2022/10/09 03:46:48;;;;;;;7.20;2.43;;;8.70;99.90;;;;;;5035594;28;20455;-74
2022/10/09 03:49:15;;;;;;;5.30;2.33;;;8.70;99.90;;;;;;5038891;28;20036;-74
2022/10/09 03:51:40;;;;;;;6.20;2.67;;;8.80;99.90;;;;;;5034653;28;20372;-74
2022/10/09 03:54:06;;;;;;;7.13;3.07;;;8.70;99.90;;;;;;5030340;28;20128;-74
2022/10/09 03:56:32;;;;;;;6.40;3.10;;;8.70;99.90;;;;;;5033872;28;20033;-75
2022/10/09 03:58:57;;;;;;;4.27;2.63;;;8.70;99.90;;;;;;5039870;28;20103;-74
2022/10/09 04:01:23;;;;;;;7.87;3.07;;;8.60;99.90;;;;;;5015464;28;20076;-74
2022/10/09 04:03:49;;;;;;;11.87;3.90;;;8.80;99.90;;;;;;5040384;28;20291;-74
2022/10/09 04:06:15;;;;;;;8.10;2.70;;;8.70;99.90;;;;;;5036495;28;20136;-74
2022/10/09 04:08:40;;;;;;;6.13;2.73;;;8.70;99.90;;;;;;5038763;28;20414;-74
2022/10/09 04:11:06;;;;;;;7.10;3.13;;;8.70;99.90;;;;;;5026185;28;20386;-74
2022/10/09 04:13:32;;;;;;;6.13;3.03;;;8.60;99.90;;;;;;5021241;28;20467;-74
2022/10/09 04:15:57;;;;;;;5.13;2.23;;;8.60;99.90;;;;;;5033016;28;20095;-74
2022/10/09 04:18:24;;;;;;;6.93;3.10;;;8.60;99.90;;;;;;5027041;28;20049;-74
2022/10/09 04:20:51;;;;;;;5.45;2.47;;;8.50;99.90;;;;;;5035480;28;20040;-74
2022/10/09 04:23:18;;;;;;;6.20;2.90;;;8.50;99.90;;;;;;5045753;28;20078;-74
2022/10/09 04:25:44;;;;;;;6.60;2.55;;;8.40;99.90;;;;;;5039073;28;20089;-74
2022/10/09 04:28:10;;;;;;;6.88;2.83;;;8.50;99.90;;;;;;5038127;28;20127;-74
2022/10/09 04:30:35;;;;;;;8.15;3.28;;;8.30;99.90;;;;;;5034124;28;20052;-74
2022/10/09 04:33:01;;;;;;;4.43;2.67;;;8.30;99.90;;;;;;5038774;28;20048;-74
2022/10/09 04:35:27;;;;;;;6.07;2.70;;;8.30;99.90;;;;;;5036151;28;20491;-74
2022/10/09 04:37:52;;;;;;;6.97;3.17;;;8.30;99.90;;;;;;5031797;28;20103;-74
2022/10/09 04:40:18;;;;;;;6.63;3.40;;;8.20;99.90;;;;;;5033069;28;20107;-74
2022/10/09 04:42:44;;;;;;;8.63;2.90;;;8.20;99.90;;;;;;5033153;28;20043;-74
2022/10/09 04:45:10;;;;;;;5.63;2.97;;;8.20;99.90;;;;;;5030165;28;20056;-74
2022/10/09 04:47:35;;;;;;;7.22;2.55;;;8.30;99.90;;;;;;5042802;28;20166;-74
2022/10/09 04:50:01;;;;;;;6.37;2.97;;;8.30;99.90;;;;;;5039593;28;20041;-74
2022/10/09 04:52:27;;;;;;;6.63;3.17;;;8.30;99.90;;;;;;5035345;28;20040;-74
2022/10/09 04:54:53;;;;;;;5.40;2.83;;;8.30;99.90;;;;;;5033580;28;20037;-74
2022/10/09 04:57:18;;;;;;;6.37;2.87;;;8.30;99.90;;;;;;5034422;28;20418;-74
2022/10/09 04:59:45;;;;;;;7.80;2.83;;;8.20;99.90;;;;;;5030808;28;20215;-74
2022/10/09 05:02:10;;;;;;;9.57;3.15;;;8.30;99.90;;;;;;5030850;28;20095;-74
2022/10/09 05:04:36;;;;;;;5.60;2.97;;;8.30;99.90;;;;;;5033369;28;20367;-74
2022/10/09 05:07:01;;;;;;;5.40;2.73;;;8.30;99.90;;;;;;5033838;28;20037;-74
2022/10/09 05:09:27;;;;;;;5.93;2.87;;;8.30;99.90;;;;;;5038173;28;20068;-74
2022/10/09 05:11:53;;;;;;;4.43;2.63;;;8.30;99.90;;;;;;5049851;28;20277;-74
2022/10/09 05:14:18;;;;;;;4.33;2.50;;;8.30;99.90;;;;;;5031174;28;20052;-74
2022/10/09 05:16:44;;;;;;;4.50;2.30;;;8.20;99.90;;;;;;5035498;28;20064;-74
2022/10/09 05:19:10;;;;;;;5.90;2.63;;;8.20;99.90;;;;;;5035534;28;20398;-74
2022/10/09 05:21:35;;;;;;;5.63;2.80;;;8.20;99.90;;;;;;5049067;28;20112;-74
2022/10/09 05:24:01;;;;;;;10.23;2.87;;;8.20;99.90;;;;;;5039802;28;20333;-74
2022/10/09 05:26:27;;;;;;;8.33;2.90;;;8.10;99.90;;;;;;5039185;28;20053;-74
2022/10/09 05:28:53;;;;;;;8.60;3.13;;;8.10;99.90;;;;;;5040936;28;20294;-74
2022/10/09 05:31:26;;;;;;;5.80;3.47;;;8.10;99.90;;;;;;5033910;28;20045;-74
2022/10/09 05:33:52;;;;;;;6.22;2.78;;;8.10;99.90;;;;;;5033367;28;20450;-74
2022/10/09 05:36:19;;;;;;;5.30;2.90;;;8.10;99.90;;;;;;5041581;28;20049;-74
2022/10/09 05:38:45;;;;;;;;;;;8.10;99.90;;;;;;5021314;28;20446;-74
2022/10/09 05:41:13;;;;;;;6.97;3.17;;;8.00;99.90;;;;;;5041914;28;19928;-74
2022/10/09 05:43:41;;;;;;;7.28;2.65;;;8.00;99.90;;;;;;5038726;28;20064;-74
2022/10/09 05:46:08;;;;;;;6.45;2.92;;;7.90;99.90;;;;;;5034753;28;20418;-74
2022/10/09 05:48:35;;;;;;;9.48;3.75;;;7.90;99.90;;;;;;5043756;28;20077;-74
2022/10/09 05:51:23;;;;;;;8.88;3.72;;;7.90;99.90;;;;;;5032326;28;20037;-74
2022/10/09 05:53:49;;;;;;;7.88;3.40;;;7.90;99.90;;;;;;5038791;28;20090;-74
2022/10/09 05:56:19;;;;;;;6.30;3.42;;;7.90;99.90;;;;;;5035790;28;20067;-74
2022/10/09 05:58:53;;;;;;;7.20;3.60;;;7.90;99.90;;;;;;5039282;28;20112;-74
2022/10/09 06:01:20;;;;;;;10.35;3.40;;;7.90;99.90;;;;;;5040171;28;20098;-74
2022/10/09 06:03:51;;;;;;;8.85;3.15;;;7.90;99.90;;;;;;5027901;28;20044;-74
2022/10/09 06:06:18;;;;;;;5.43;3.00;;;7.90;99.90;;;;;;5032710;28;20044;-74
2022/10/09 06:08:44;;;;;;;8.35;2.75;;;7.90;99.90;;;;;;5049937;28;20033;-74
2022/10/09 06:11:19;;;;;;;6.53;3.08;;;7.90;99.90;;;;;;5042560;28;20040;-74
2022/10/09 06:13:45;;;;;;;5.70;2.78;;;7.90;99.90;;;;;;5035510;28;20503;-74
2022/10/09 06:16:13;;;;;;;7.50;3.13;;;7.90;99.90;;;;;;5035639;28;20041;-74
2022/10/09 06:18:42;;;;;;;5.00;3.28;;;7.90;99.90;;;;;;5052535;28;20056;-74
2022/10/09 06:21:08;;;;;;;6.07;2.80;;;7.90;99.90;;;;;;5050635;28;20135;-74
2022/10/09 06:23:34;;;;;;;6.20;3.00;;;7.90;99.90;;;;;;5032990;28;20522;-74
2022/10/09 06:26:06;;;;;;;6.10;2.65;;;7.90;99.90;;;;;;5032704;28;20041;-74
2022/10/09 06:28:34;;;;;;;5.80;2.67;;;7.80;99.90;;;;;;5042160;28;20090;-74
2022/10/09 06:31:00;;;;;;;7.93;3.05;;;7.90;99.90;;;;;;5023794;28;20390;-74
2022/10/09 06:33:32;;;;;;;5.47;2.78;;;8.00;99.90;;;;;;5041676;28;20059;-74
2022/10/09 06:35:59;;;;;;;6.55;3.10;;;8.00;99.90;;;;;;5040820;28;20055;-74
2022/10/09 06:38:26;;;;;;;10.13;3.97;;;8.00;99.90;;;;;;5029911;28;20483;-74
2022/10/09 06:40:51;;;;;;;11.13;3.65;;;8.00;99.90;;;;;;5028225;28;20450;-75
2022/10/09 06:43:17;;;;;;;6.07;3.50;;;8.00;99.90;;;;;;5034244;28;20051;-74
2022/10/09 06:45:42;;;;;;;8.50;3.20;;;8.00;99.90;;;;;;5036008;28;20026;-74
2022/10/09 06:48:08;;;;;;;8.07;3.10;;;8.00;99.90;;;;;;5042618;28;20138;-74
2022/10/09 06:50:35;;;;;;;5.82;3.00;;;8.10;99.90;;;;;;5031911;28;20101;-74
2022/10/09 06:53:05;;;;;;;5.03;2.97;;;8.10;99.90;;;;;;5037137;28;20466;-74
2022/10/09 06:55:31;;;;;;;5.05;2.67;;;8.10;99.90;;;;;;5026985;28;20480;-74
2022/10/09 06:57:57;;;;;;;5.95;3.05;;;8.10;99.90;;;;;;5050015;28;20041;-74
2022/10/09 07:00:23;;;;;;;4.60;2.45;;;8.20;99.90;;;;;;5025782;28;20128;-75
2022/10/09 07:02:49;;;;;;;4.82;3.15;;;8.20;99.90;;;;;;5033352;28;20065;-74
2022/10/09 07:05:15;;;;;;;4.65;2.60;;;8.30;99.90;;;;;;5025958;28;20363;-74
2022/10/09 07:07:41;;;;;;;7.55;2.80;;;8.30;99.90;;;;;;5047550;28;20041;-74
2022/10/09 07:10:08;;;;;;;4.43;2.65;;;8.30;99.90;;;;;;5026344;28;20041;-74
2022/10/09 07:12:35;;;;;;;7.63;3.33;;;8.40;99.90;;;;;;5040063;28;20052;-74
2022/10/09 07:15:04;;;;;;;7.07;2.88;;;8.40;99.90;;;;;;5017412;28;20466;-74
2022/10/09 07:17:29;;;;;;;11.27;3.17;;;8.50;99.90;;;;;;5026443;28;20435;-74
2022/10/09 07:19:55;;;;;;;7.33;2.87;;;8.50;99.90;;;;;;5040680;28;20084;-74
2022/10/09 07:22:21;;;;;;;6.17;3.30;;;8.50;99.90;;;;;;5028958;28;20697;-74
2022/10/09 07:24:47;;;;;;;7.87;2.93;;;8.60;99.90;;;;;;5034556;28;20039;-74
2022/10/09 07:27:13;;;;;;;4.78;2.65;;;8.60;99.90;;;;;;5043022;28;20045;-74
2022/10/09 07:29:39;;;;;;;6.10;2.77;;;8.60;99.90;;;;;;5035091;28;20044;-74
2022/10/09 07:32:05;;;;;;;5.00;2.80;;;8.70;99.90;;;;;;5031304;28;20177;-74
2022/10/09 07:34:30;;;;;;;7.63;3.43;;;8.70;99.90;;;;;;5023556;28;20041;-74
2022/10/09 07:36:56;;;;;;;5.50;2.90;;;8.80;99.90;;;;;;5052326;28;20044;-74
2022/10/09 07:39:22;;;;;;;10.17;3.17;;;8.80;99.90;;;;;;5028884;28;20104;-74
2022/10/09 07:41:51;;;;;;;7.53;2.67;;;8.90;99.90;;;;;;5028872;28;20045;-74
2022/10/09 07:44:17;;;;;;;8.65;2.60;;;8.90;99.90;;;;;;5038613;28;20151;-73
2022/10/09 07:46:43;;;;;;;;;;;9.00;99.90;;;;;;5048918;28;20044;-74
2022/10/09 07:49:09;;;;;;;5.80;2.50;;;9.00;99.90;;;;;;5033703;28;19978;-74
2022/10/09 07:51:35;;;;;;;4.95;2.30;;;9.10;99.90;;;;;;5031725;28;20037;-74
2022/10/09 07:54:01;;;;;;;4.40;2.50;;;9.20;99.90;;;;;;5030289;28;20551;-74
2022/10/09 07:56:30;;;;;;;4.55;2.63;;;9.30;99.90;;;;;;5033567;28;20154;-74
2022/10/09 07:59:01;;;;;;;8.13;3.45;;;9.30;99.90;;;;;;5030912;28;20679;-74
2022/10/09 08:01:28;;;;;;;6.47;2.83;;;9.40;99.90;;;;;;5040189;28;20144;-74
2022/10/09 08:03:54;;;;;;;4.35;2.33;;;9.40;99.90;;;;;;5033933;28;20171;-75
2022/10/09 08:06:20;;;;;;;6.38;2.40;;;9.50;99.90;;;;;;5028880;28;20643;-74
2022/10/09 08:08:53;;;;;;;7.53;2.47;;;9.60;99.90;;;;;;5030317;28;20040;-74
2022/10/09 08:11:21;;;;;;;7.28;2.42;;;9.60;99.90;;;;;;5031496;28;20052;-74
2022/10/09 08:13:48;;;;;;;4.57;2.58;;;9.70;99.90;;;;;;5027680;28;20037;-74
2022/10/09 08:16:16;;;;;;;5.72;2.90;;;9.80;99.90;;;;;;5031860;28;20124;-74
2022/10/09 08:18:42;;;;;;;5.65;2.45;;;9.90;99.90;;;;;;5035961;28;20140;-74
2022/10/09 08:21:13;;;;;;;5.60;2.30;;;9.90;99.90;;;;;;5026930;28;20089;-74
2022/10/09 08:23:39;;;;;;;6.75;1.80;;;10.00;99.90;;;;;;5028560;28;20034;-74
2022/10/09 08:26:18;;;;;;;4.07;2.58;;;10.10;99.90;;;;;;5044445;22;20436;-77
2022/10/09 08:28:50;;;;;;;7.25;2.42;;;10.20;99.90;;;;;;5059624;28;20066;-78
2022/10/09 08:31:16;;;;;;;4.72;2.17;;;10.30;99.90;;;;;;5058882;28;20083;-77
2022/10/09 08:33:42;;;;;;;4.25;2.42;;;10.40;99.90;;;;;;5061557;28;20494;-77
2022/10/09 08:36:10;;;;;;;5.73;2.23;;;10.50;99.90;;;;;;5062552;28;20101;-78
2022/10/09 08:38:36;;;;;;;4.00;2.05;;;10.60;99.90;;;;;;5046055;28;20058;-78
2022/10/09 08:41:31;;;;;;;10.45;2.38;;;10.70;99.90;;;;;;5057770;28;20119;-78
2022/10/09 08:44:02;;;;;;;8.50;2.17;;;10.80;99.90;;;;;;5044140;28;20052;-78
2022/10/09 08:46:49;;;;;;;7.55;2.50;;;10.90;99.90;;;;;;5060706;28;20036;-81
2022/10/09 08:49:29;;;;;;;4.88;1.60;;;11.00;99.90;;;;;;5066549;28;20501;-77
2022/10/09 08:51:58;;;;;;;10.07;2.22;;;11.10;99.90;;;;;;5064350;28;20100;-78
2022/10/09 08:54:32;;;;;;;6.50;2.60;;;11.20;99.90;;;;;;5060582;28;20086;-78
2022/10/09 08:57:02;;;;;;;7.65;2.00;;;11.30;99.90;;;;;;5064510;28;20239;-77
2022/10/09 08:59:28;;;;;;;8.35;1.98;;;11.40;99.90;;;;;;5064283;28;20044;-77
2022/10/09 09:01:57;;;;;;;10.20;2.50;;;11.50;99.90;;;;;;5043981;28;20040;-78
2022/10/09 09:04:39;;;;;;;6.43;1.48;;;11.50;99.90;;;;;;5060969;28;20571;-78
2022/10/09 09:07:12;;;;;;;4.05;1.92;;;11.70;99.90;;;;;;5044742;28;20037;-77
2022/10/09 09:09:51;;;;;;;4.88;1.67;;;11.80;99.90;;;;;;5059200;28;20147;-77
2022/10/09 09:12:39;;;;;;;8.07;1.52;;;11.90;99.90;;;;;;5062635;28;20330;-77
2022/10/09 09:15:30;;;;;;;6.07;1.67;;;12.00;99.90;;;;;;5056827;28;20044;-78
2022/10/09 09:18:07;;;;;;;3.55;1.10;;;12.00;99.90;;;;;;5056521;28;20045;-77
2022/10/09 09:20:54;;;;;;;2.50;1.42;;;12.20;99.90;;;;;;5074416;28;20041;-77
2022/10/09 09:23:36;;;;;;;5.32;1.70;;;12.30;99.90;;;;;;5057484;28;20035;-78
2022/10/09 09:26:05;;;;;;;5.20;1.15;;;12.40;99.90;;;;;;5057564;28;20141;-76
2022/10/09 09:28:33;;;;;;;3.95;1.13;;;12.50;99.90;;;;;;5061941;28;20123;-76
2022/10/09 09:31:10;;;;;;;4.32;1.20;;;12.60;99.90;;;;;;5059125;28;20049;-77
2022/10/09 09:34:01;;;;;;;5.03;1.67;;;12.60;99.90;;;;;;5062824;28;20040;-76
2022/10/09 09:36:37;;;;;;;5.07;1.48;;;12.70;99.90;;;;;;5062629;28;20040;-80
2022/10/09 09:39:12;;;;;;;7.07;1.85;;;12.70;99.90;;;;;;5053501;28;20052;-76
2022/10/09 09:41:42;;;;;;;5.10;1.90;;;12.80;99.90;;;;;;5056461;28;20041;-76
2022/10/09 09:44:13;;;;;;;4.32;1.70;;;12.90;99.90;;;;;;5062724;28;20044;-78
2022/10/09 09:46:41;;;;;;;2.72;1.48;;;13.00;99.90;;;;;;5040866;28;20044;-77
2022/10/09 09:49:18;;;;;;;5.10;1.80;;;13.10;99.90;;;;;;5061741;28;20045;-77
2022/10/09 09:51:46;;;;;;;7.43;1.98;;;13.20;99.90;;;;;;5044976;28;20501;-77
2022/10/09 09:54:19;;;;;;;7.63;1.50;;;13.20;99.90;;;;;;5062849;28;20559;-77
2022/10/09 09:56:46;;;;;;;4.90;1.20;;;13.30;99.90;;;;;;5062562;28;20101;-78
2022/10/09 09:59:34;;;;;;;4.43;1.83;;;13.30;99.90;;;;;;5064156;28;20041;-77
2022/10/09 10:02:14;;;;;;;5.85;1.80;;;13.50;99.90;;;;;;5059894;28;20053;-77
2022/10/09 10:04:59;;;;;;;6.00;1.58;;;13.50;99.90;;;;;;5064095;28;20098;-77
2022/10/09 10:07:34;;;;;;;6.00;1.70;;;13.60;99.90;;;;;;5074951;28;20040;-78
2022/10/09 10:10:08;;;;;;;2.83;1.60;;;13.70;99.90;;;;;;5053271;28;20041;-77
2022/10/09 10:12:40;;;;;;;5.50;1.35;;;13.80;99.90;;;;;;5061303;28;20197;-81
2022/10/09 10:15:16;;;;;;;5.25;1.42;;;13.90;99.90;;;;;;5040368;28;20359;-77
2022/10/09 10:17:41;;;;;;;3.88;1.20;;;14.00;99.90;;;;;;5058643;28;20051;-78
2022/10/09 10:20:07;;;;;;;6.35;2.00;;;14.20;99.90;;;;;;5065499;28;20104;-77
2022/10/09 10:22:34;;;;;;;6.43;1.63;;;14.20;99.90;;;;;;5060039;28;20037;-77
2022/10/09 10:25:00;;;;;;;6.75;1.30;;;14.30;99.90;;;;;;5067986;28;20039;-77
2022/10/09 10:27:40;;;;;;;5.00;1.20;;;14.30;99.90;;;;;;5061434;28;20044;-78
2022/10/09 10:30:12;;;;;;;6.88;1.33;;;14.40;99.90;;;;;;5062077;28;20464;-78
2022/10/09 10:32:53;;;;;;;3.90;1.38;;;14.50;99.90;;;;;;5054854;28;20079;-74
2022/10/09 10:35:29;;;;;;;4.70;1.33;;;14.50;99.90;;;;;;5062806;28;20044;-73
2022/10/09 10:38:30;;;;;;;5.47;1.20;;;14.60;99.90;;;;;;5061240;28;20040;-73
2022/10/09 10:41:16;;;;;;;5.68;2.00;;;14.60;99.90;;;;;;4973184;28;20053;-73
2022/10/09 10:43:58;;;;;;;4.43;0.73;;;14.60;99.90;;;;;;5060217;28;20048;-73
2022/10/09 10:46:31;;;;;;;2.40;0.90;;;14.60;99.90;;;;;;5067546;28;20223;-73
2022/10/09 10:48:58;;;;;;;3.60;1.42;;;14.70;99.90;;;;;;5064111;28;20047;-73
2022/10/09 10:51:48;;;;;;;1.15;0.50;;;14.70;99.90;;;;;;5066043;28;20044;-72
2022/10/09 10:54:29;;;;;;;3.78;1.00;;;14.80;99.90;;;;;;5059599;28;20044;-73
2022/10/09 10:57:41;;;;;;;8.55;1.20;;;14.80;99.90;;;;;;5063971;28;20540;-73
2022/10/09 11:00:10;;;;;;;4.20;0.85;;;14.90;99.90;;;;;;4989080;28;20050;-73
2022/10/09 11:03:05;;;;;;;2.90;0.75;;;14.90;99.90;;;;;;4991324;28;20072;-73
2022/10/09 11:05:33;;;;;;;4.18;0.95;;;15.00;99.90;;;;;;5043073;28;20536;-75
2022/10/09 11:08:33;;;;;;;2.75;0.80;;;15.00;99.90;;;;;;5066459;28;20044;-73
2022/10/09 11:11:07;;;;;;;5.18;1.45;;;15.10;99.90;;;;;;5061650;28;20043;-73
2022/10/09 11:13:45;;;;;;;3.13;1.02;;;15.10;99.90;;;;;;5066484;28;20072;-73
2022/10/09 11:16:28;;;;;;;5.95;0.82;;;15.10;99.90;;;;;;5067638;28;20490;-73
2022/10/09 11:19:09;;;;;;;3.20;0.60;;;15.10;99.90;;;;;;5057698;28;20044;-73
2022/10/09 11:22:01;;;;;;;3.30;1.00;;;15.20;99.90;;;;;;5065064;28;20086;-73
2022/10/09 11:24:55;;;;;;;3.72;0.80;;;15.30;99.90;;;;;;5068347;28;20054;-73
2022/10/09 11:27:59;;;;;;;3.15;0.82;;;15.40;99.90;;;;;;5064693;28;20612;-73
2022/10/09 11:30:27;;;;;;;2.22;0.73;;;15.50;99.90;;;;;;5024514;28;20165;-73
2022/10/09 11:33:20;;;;;;;3.20;0.80;;;15.60;99.90;;;;;;5065431;28;20120;-73
2022/10/09 11:36:11;;;;;;;3.67;0.90;;;15.60;99.90;;;;;;5062439;28;20516;-73
2022/10/09 11:38:42;;;;;;;3.08;1.25;;;15.70;99.90;;;;;;5055476;28;20302;-76
2022/10/09 11:41:08;;;;;;;3.35;1.10;;;15.80;99.90;;;;;;5052335;28;20032;-73
2022/10/09 11:43:42;;;;;;;2.83;0.85;;;16.00;99.90;;;;;;5057561;28;20479;-74
2022/10/09 11:46:20;;;;;;;6.55;1.13;;;16.10;99.90;;;;;;5054814;28;20127;-77
2022/10/09 11:49:25;;;;;;;4.05;1.00;;;16.20;99.90;;;;;;5052643;28;20567;-77
2022/10/09 11:51:57;;;;;;;2.50;0.95;;;16.20;99.90;;;;;;5029493;28;20048;-73
2022/10/09 11:54:26;;;;;;;4.47;1.30;;;16.20;99.90;;;;;;5064398;28;20398;-73
2022/10/09 11:57:03;;;;;;;3.70;1.13;;;16.20;99.90;;;;;;5064409;28;20269;-73
2022/10/09 11:59:36;;;;;;;5.50;1.10;;;16.20;99.90;;;;;;5044302;28;20093;-73
2022/10/09 12:02:29;;;;;;;5.68;1.48;;;16.30;99.90;;;;;;5063696;28;20082;-73
2022/10/09 12:04:57;;;;;;;3.53;1.02;;;16.40;99.90;;;;;;5060209;28;20032;-73
2022/10/09 12:07:35;;;;;;;4.63;0.95;;;16.50;99.90;;;;;;5063637;28;20032;-72
2022/10/09 12:10:26;;;;;;;5.20;1.45;;;16.60;99.90;;;;;;5058379;28;20048;-72
2022/10/09 12:13:03;;;;;;;2.65;1.10;;;16.70;99.90;;;;;;5066572;28;20051;-72
2022/10/09 12:15:58;;;;;;;5.80;1.40;;;16.70;99.90;;;;;;5063257;28;20401;-72
2022/10/09 12:18:31;;;;;;;3.88;1.20;;;16.80;99.90;;;;;;5063047;28;20222;-72
2022/10/09 12:21:00;;;;;;;4.18;0.95;;;16.90;99.90;;;;;;5061927;28;20162;-72
2022/10/09 12:23:30;;;;;;;3.63;0.73;;;16.90;99.90;;;;;;5064800;28;20040;-72
2022/10/09 12:25:57;;;;;;;5.85;1.35;;;17.00;99.90;;;;;;5052915;28;20375;-73
2022/10/09 12:28:22;;;;;;;3.00;1.08;;;17.10;99.90;;;;;;5059840;28;20048;-72
2022/10/09 12:30:54;;;;;;;9.13;0.80;;;17.10;99.90;;;;;;5062040;28;20054;-72
2022/10/09 12:33:25;;;;;;;3.90;1.42;;;17.30;99.90;;;;;;5063324;28;20060;-72
2022/10/09 12:36:16;;;;;;;4.25;1.30;;;17.30;99.90;;;;;;5040864;28;20369;-72
2022/10/09 12:38:42;;;;;;;5.20;1.40;;;17.40;99.90;;;;;;5044445;28;20142;-75
2022/10/09 12:41:30;;;;;;;5.47;1.10;;;17.60;99.90;;;;;;5064351;28;20113;-74
2022/10/09 12:43:59;;;;;;;7.93;1.63;;;17.60;99.90;;;;;;5061279;28;20517;-74
2022/10/09 12:46:38;;;;;;;5.25;1.02;;;17.60;99.90;;;;;;5058617;28;20149;-75
2022/10/09 12:49:16;;;;;;;3.80;1.20;;;17.60;99.90;;;;;;5058285;28;20044;-78
2022/10/09 12:51:52;;;;;;;3.35;1.05;;;17.60;99.90;;;;;;5065654;28;20043;-78
2022/10/09 12:54:18;;;;;;;2.65;1.23;;;17.80;99.90;;;;;;5064998;28;20234;-74
2022/10/09 12:56:46;;;;;;;7.55;1.20;;;17.90;99.90;;;;;;5059333;28;20418;-74
2022/10/09 12:59:12;;;;;;;7.20;1.33;;;18.00;99.90;;;;;;5060459;28;20505;-75
2022/10/09 13:01:41;;;;;;;3.72;1.20;;;18.00;99.90;;;;;;5066314;28;20047;-72
2022/10/09 13:04:09;;;;;;;6.53;2.20;;;18.00;99.90;;;;;;5066529;28;20055;-72
2022/10/09 13:06:47;;;;;;;5.03;1.45;;;18.10;99.90;;;;;;5064716;28;20397;-72
2022/10/09 13:09:21;;;;;;;5.05;1.52;;;18.10;99.90;;;;;;5043782;28;20044;-72
2022/10/09 13:11:57;;;;;;;2.40;1.10;;;18.20;99.90;;;;;;5065327;28;20114;-72